createdAt,value
2018-05-19T00:00:22.023Z,8.67
2018-05-19T00:01:22.019Z,8.78
2018-05-19T00:02:22.017Z,8.84
2018-05-19T00:03:22.013Z,8.67
2018-05-19T00:04:22.010Z,8.69
2018-05-19T00:05:22.007Z,8.67
2018-05-19T00:06:22.004Z,8.71
2018-05-19T00:07:22.001Z,8.66
2018-05-19T00:08:21.999Z,8.69
2018-05-19T00:09:21.998Z,8.64
2018-05-19T00:10:21.993Z,8.70
2018-05-19T00:11:21.990Z,8.70
2018-05-19T00:12:21.989Z,8.67
2018-05-19T00:13:21.984Z,8.66
2018-05-19T00:14:21.982Z,8.63
2018-05-19T00:15:21.982Z,8.61
2018-05-19T00:16:21.977Z,8.46
2018-05-19T00:17:21.975Z,8.52
2018-05-19T00:18:21.969Z,8.42
2018-05-19T00:19:21.968Z,8.42
2018-05-19T00:20:21.968Z,8.38
2018-05-19T00:21:21.959Z,8.38
2018-05-19T00:22:21.958Z,8.44
2018-05-19T00:23:21.957Z,8.45
2018-05-19T00:24:21.955Z,8.45
2018-05-19T00:25:21.949Z,8.48
2018-05-19T00:26:21.947Z,8.46
2018-05-19T00:27:21.944Z,8.42
2018-05-19T00:28:21.942Z,8.45
2018-05-19T00:29:21.938Z,8.46
2018-05-19T00:30:21.934Z,8.37
2018-05-19T00:31:21.933Z,8.27
2018-05-19T00:32:21.930Z,8.28
2018-05-19T00:33:21.927Z,8.36
2018-05-19T00:34:21.977Z,8.31
2018-05-19T00:35:21.919Z,8.27
2018-05-19T00:36:21.927Z,8.18
2018-05-19T00:37:21.915Z,8.31
2018-05-19T00:38:21.912Z,8.23
2018-05-19T00:39:21.910Z,8.18
2018-05-19T00:40:21.906Z,8.15
2018-05-19T00:41:21.903Z,8.16
2018-05-19T00:42:21.900Z,8.13
2018-05-19T00:43:21.898Z,8.08
2018-05-19T00:44:21.896Z,8.01
2018-05-19T00:45:21.892Z,8.03
2018-05-19T00:46:21.889Z,8.10
2018-05-19T00:47:21.885Z,8.06
2018-05-19T00:48:21.882Z,8.09
2018-05-19T00:49:21.882Z,8.10
2018-05-19T00:50:21.877Z,7.98
2018-05-19T00:51:21.875Z,8.09
2018-05-19T00:52:21.869Z,8.03
2018-05-19T00:53:21.867Z,7.94
2018-05-19T00:54:21.864Z,7.82
2018-05-19T00:55:21.861Z,7.76
2018-05-19T00:56:21.858Z,7.72
2018-05-19T00:57:21.854Z,7.72
2018-05-19T00:58:21.851Z,7.70
2018-05-19T00:59:21.848Z,7.73
2018-05-19T01:00:21.847Z,7.75
2018-05-19T01:01:21.841Z,7.69
2018-05-19T01:02:21.839Z,7.72
2018-05-19T01:03:21.836Z,7.76
2018-05-19T01:04:21.833Z,7.72
2018-05-19T01:05:21.829Z,7.66
2018-05-19T01:06:21.826Z,7.66
2018-05-19T01:07:21.823Z,7.51
2018-05-19T01:08:21.821Z,7.56
2018-05-19T01:09:21.817Z,7.51
2018-05-19T01:10:21.813Z,7.43
2018-05-19T01:11:21.810Z,7.51
2018-05-19T01:12:21.807Z,7.53
2018-05-19T01:13:21.806Z,7.54
2018-05-19T01:14:21.800Z,7.54
2018-05-19T01:15:21.796Z,7.48
2018-05-19T01:16:21.818Z,7.53
2018-05-19T01:17:21.788Z,7.47
2018-05-19T01:18:21.786Z,7.56
2018-05-19T01:19:21.787Z,7.54
2018-05-19T01:20:21.781Z,7.56
2018-05-19T01:21:21.775Z,7.61
2018-05-19T01:22:21.773Z,7.53
2018-05-19T01:23:21.769Z,7.39
2018-05-19T01:24:21.767Z,7.29
2018-05-19T01:25:21.763Z,7.25
2018-05-19T01:26:21.759Z,7.18
2018-05-19T01:27:21.756Z,7.23
2018-05-19T01:28:21.755Z,7.23
2018-05-19T01:29:21.749Z,7.23
2018-05-19T01:30:21.794Z,7.18
2018-05-19T01:31:21.742Z,7.17
2018-05-19T01:32:21.739Z,7.10
2018-05-19T01:33:21.734Z,7.05
2018-05-19T01:34:21.732Z,7.02
2018-05-19T01:35:21.731Z,7.00
2018-05-19T01:36:21.725Z,6.99
2018-05-19T01:37:21.721Z,7.06
2018-05-19T01:38:21.716Z,7.06
2018-05-19T01:39:21.714Z,7.03
2018-05-19T01:40:21.709Z,7.03
2018-05-19T01:41:21.705Z,7.03
2018-05-19T01:42:21.711Z,7.13
2018-05-19T01:43:21.699Z,7.03
2018-05-19T01:44:21.699Z,7.06
2018-05-19T01:45:21.691Z,7.13
2018-05-19T01:46:21.688Z,7.11
2018-05-19T01:47:21.685Z,7.17
2018-05-19T01:48:21.682Z,7.17
2018-05-19T01:49:21.677Z,7.07
2018-05-19T01:50:21.673Z,7.07
2018-05-19T01:51:21.673Z,7.10
2018-05-19T01:52:21.666Z,7.05
2018-05-19T01:53:21.663Z,7.03
2018-05-19T01:54:21.661Z,7.02
2018-05-19T01:55:21.654Z,7.05
2018-05-19T01:56:21.652Z,7.10
2018-05-19T01:57:21.648Z,7.07
2018-05-19T01:58:21.644Z,7.10
2018-05-19T01:59:21.642Z,7.06
2018-05-19T02:00:21.637Z,6.95
2018-05-19T02:01:21.632Z,6.88
2018-05-19T02:02:21.629Z,6.92
2018-05-19T02:03:21.626Z,6.88
2018-05-19T02:04:21.624Z,6.79
2018-05-19T02:05:21.620Z,6.84
2018-05-19T02:06:21.613Z,6.85
2018-05-19T02:07:21.611Z,6.75
2018-05-19T02:08:21.607Z,6.84
2018-05-19T02:09:21.602Z,6.78
2018-05-19T02:10:21.599Z,6.72
2018-05-19T02:11:21.596Z,6.69
2018-05-19T02:12:21.593Z,6.66
2018-05-19T02:13:21.588Z,6.74
2018-05-19T02:14:21.584Z,6.69
2018-05-19T02:15:21.581Z,6.72
2018-05-19T02:16:21.577Z,6.66
2018-05-19T02:17:21.573Z,6.66
2018-05-19T02:18:21.568Z,6.64
2018-05-19T02:19:21.564Z,6.70
2018-05-19T02:20:21.561Z,6.66
2018-05-19T02:21:21.560Z,6.67
2018-05-19T02:22:21.553Z,6.75
2018-05-19T02:23:21.549Z,6.66
2018-05-19T02:24:21.545Z,6.64
2018-05-19T02:25:21.541Z,6.60
2018-05-19T02:26:21.538Z,6.67
2018-05-19T02:27:21.534Z,6.70
2018-05-19T02:28:21.530Z,6.66
2018-05-19T02:29:21.526Z,6.69
2018-05-19T02:30:21.521Z,6.67
2018-05-19T02:31:21.517Z,6.67
2018-05-19T02:32:21.515Z,6.66
2018-05-19T02:33:21.512Z,6.60
2018-05-19T02:34:21.508Z,6.64
2018-05-19T02:35:21.503Z,6.69
2018-05-19T02:36:21.499Z,6.57
2018-05-19T02:37:21.495Z,6.64
2018-05-19T02:38:21.578Z,6.60
2018-05-19T02:39:21.489Z,6.59
2018-05-19T02:40:21.484Z,6.62
2018-05-19T02:41:21.480Z,6.62
2018-05-19T02:42:21.474Z,6.57
2018-05-19T02:43:21.470Z,6.57
2018-05-19T02:44:21.467Z,6.54
2018-05-19T02:45:21.465Z,6.56
2018-05-19T02:46:21.460Z,6.49
2018-05-19T02:47:21.454Z,6.45
2018-05-19T02:48:21.459Z,6.45
2018-05-19T02:49:21.454Z,6.48
2018-05-19T02:50:21.442Z,6.48
2018-05-19T02:51:21.438Z,6.52
2018-05-19T02:52:21.435Z,6.45
2018-05-19T02:53:21.431Z,6.54
2018-05-19T02:54:21.430Z,6.42
2018-05-19T02:55:21.427Z,6.48
2018-05-19T02:56:21.419Z,6.46
2018-05-19T02:57:21.414Z,6.48
2018-05-19T02:58:21.412Z,6.42
2018-05-19T02:59:21.406Z,6.41
2018-05-19T03:00:21.403Z,6.44
2018-05-19T03:01:21.397Z,6.42
2018-05-19T03:02:21.394Z,6.39
2018-05-19T03:03:21.390Z,6.33
2018-05-19T03:04:21.386Z,6.41
2018-05-19T03:05:21.382Z,6.36
2018-05-19T03:06:21.379Z,6.33
2018-05-19T03:07:21.373Z,6.30
2018-05-19T03:08:21.369Z,6.35
2018-05-19T03:09:21.364Z,6.36
2018-05-19T03:10:21.361Z,6.42
2018-05-19T03:11:21.357Z,6.42
2018-05-19T03:12:21.354Z,6.38
2018-05-19T03:13:21.348Z,6.42
2018-05-19T03:14:21.344Z,6.36
2018-05-19T03:15:21.341Z,6.36
2018-05-19T03:16:21.335Z,6.46
2018-05-19T03:17:21.333Z,6.46
2018-05-19T03:18:21.328Z,6.42
2018-05-19T03:19:21.327Z,6.42
2018-05-19T03:20:21.320Z,6.42
2018-05-19T03:21:21.314Z,6.45
2018-05-19T03:22:21.310Z,6.44
2018-05-19T03:23:21.309Z,6.38
2018-05-19T03:24:21.303Z,6.39
2018-05-19T03:25:21.298Z,6.39
2018-05-19T03:26:21.293Z,6.41
2018-05-19T03:27:21.290Z,6.36
2018-05-19T03:28:21.285Z,6.38
2018-05-19T03:29:21.280Z,6.33
2018-05-19T03:30:21.277Z,6.31
2018-05-19T03:31:21.274Z,6.26
2018-05-19T03:32:21.270Z,6.27
2018-05-19T03:33:21.264Z,6.30
2018-05-19T03:34:21.259Z,6.35
2018-05-19T03:35:21.256Z,6.28
2018-05-19T03:36:21.253Z,6.27
2018-05-19T03:37:21.248Z,6.38
2018-05-19T03:38:21.243Z,6.33
2018-05-19T03:39:21.240Z,6.38
2018-05-19T03:40:21.236Z,6.36
2018-05-19T03:41:21.231Z,6.45
2018-05-19T03:42:21.227Z,6.41
2018-05-19T03:43:21.222Z,6.46
2018-05-19T03:44:21.220Z,6.45
2018-05-19T03:45:21.217Z,6.56
2018-05-19T03:46:21.210Z,6.44
2018-05-19T03:47:21.205Z,6.45
2018-05-19T03:48:21.201Z,6.57
2018-05-19T03:49:21.196Z,6.52
2018-05-19T03:50:21.197Z,6.56
2018-05-19T03:51:21.187Z,6.59
2018-05-19T03:52:21.183Z,6.56
2018-05-19T03:53:21.179Z,6.57
2018-05-19T03:54:21.175Z,6.56
2018-05-19T03:55:21.170Z,6.51
2018-05-19T03:56:21.166Z,6.60
2018-05-19T03:57:21.159Z,6.59
2018-05-19T03:58:21.157Z,6.60
2018-05-19T03:59:21.153Z,6.59
2018-05-19T04:00:21.150Z,6.59
2018-05-19T04:01:21.144Z,6.69
2018-05-19T04:02:21.140Z,6.77
2018-05-19T04:03:21.136Z,6.81
2018-05-19T04:04:21.133Z,6.92
2018-05-19T04:05:21.127Z,6.88
2018-05-19T04:06:21.125Z,6.96
2018-05-19T04:07:21.119Z,6.93
2018-05-19T04:08:21.116Z,7.02
2018-05-19T04:09:21.111Z,6.99
2018-05-19T04:10:21.106Z,7.07
2018-05-19T04:11:21.102Z,7.24
2018-05-19T04:12:21.098Z,7.18
2018-05-19T04:13:21.093Z,7.21
2018-05-19T04:14:21.091Z,7.28
2018-05-19T04:15:21.087Z,7.33
2018-05-19T04:16:21.086Z,7.35
2018-05-19T04:17:21.077Z,7.38
2018-05-19T04:18:21.073Z,7.42
2018-05-19T04:19:21.070Z,7.43
2018-05-19T04:20:21.068Z,7.50
2018-05-19T04:21:21.061Z,7.50
2018-05-19T04:22:21.057Z,7.54
2018-05-19T04:23:21.054Z,7.57
2018-05-19T04:24:21.050Z,7.61
2018-05-19T04:25:21.045Z,7.54
2018-05-19T04:26:21.043Z,7.58
2018-05-19T04:27:21.039Z,7.61
2018-05-19T04:28:21.034Z,7.66
2018-05-19T04:29:21.030Z,7.66
2018-05-19T04:30:21.029Z,7.58
2018-05-19T04:31:21.022Z,7.63
2018-05-19T04:32:21.020Z,7.60
2018-05-19T04:33:21.015Z,7.61
2018-05-19T04:34:21.016Z,7.58
2018-05-19T04:35:21.009Z,7.67
2018-05-19T04:36:21.005Z,7.72
2018-05-19T04:37:20.999Z,7.73
2018-05-19T04:38:20.997Z,7.66
2018-05-19T04:39:20.993Z,7.79
2018-05-19T04:40:20.989Z,7.79
2018-05-19T04:41:20.983Z,7.77
2018-05-19T04:42:20.982Z,7.79
2018-05-19T04:43:20.979Z,7.79
2018-05-19T04:44:20.981Z,7.87
2018-05-19T04:45:20.972Z,7.90
2018-05-19T04:46:20.966Z,7.98
2018-05-19T04:47:20.968Z,8.15
2018-05-19T04:48:20.961Z,8.13
2018-05-19T04:49:20.957Z,8.28
2018-05-19T04:50:20.953Z,8.31
2018-05-19T04:51:20.951Z,8.38
2018-05-19T04:52:20.945Z,8.46
2018-05-19T04:53:20.942Z,8.53
2018-05-19T04:54:20.940Z,8.61
2018-05-19T04:55:20.936Z,8.60
2018-05-19T04:56:20.936Z,8.60
2018-05-19T04:57:20.929Z,8.63
2018-05-19T04:58:20.926Z,8.69
2018-05-19T04:59:20.924Z,8.67
2018-05-19T05:00:20.920Z,8.84
2018-05-19T05:01:20.917Z,8.82
2018-05-19T05:02:20.916Z,8.97
2018-05-19T05:03:20.912Z,9.10
2018-05-19T05:04:20.909Z,9.19
2018-05-19T05:05:20.904Z,9.34
2018-05-19T05:06:20.901Z,9.40
2018-05-19T05:07:20.899Z,9.47
2018-05-19T05:08:20.896Z,9.51
2018-05-19T05:09:20.896Z,9.58
2018-05-19T05:10:20.889Z,9.62
2018-05-19T05:11:20.894Z,9.72
2018-05-19T05:12:20.885Z,9.86
2018-05-19T05:13:20.881Z,10.01
2018-05-19T05:14:20.879Z,10.07
2018-05-19T05:15:20.876Z,10.01
2018-05-19T05:16:20.882Z,10.16
2018-05-19T05:17:20.876Z,10.15
2018-05-19T05:18:20.868Z,10.12
2018-05-19T05:19:20.867Z,10.22
2018-05-19T05:20:20.865Z,10.23
2018-05-19T05:21:20.896Z,10.30
2018-05-19T05:22:20.862Z,10.26
2018-05-19T05:23:20.858Z,10.30
2018-05-19T05:24:20.856Z,10.31
2018-05-19T05:25:20.856Z,10.31
2018-05-19T05:26:20.851Z,10.34
2018-05-19T05:27:20.849Z,10.38
2018-05-19T05:28:20.847Z,10.56
2018-05-19T05:29:20.844Z,10.61
2018-05-19T05:30:20.841Z,10.72
2018-05-19T05:31:20.841Z,10.86
2018-05-19T05:32:20.839Z,10.92
2018-05-19T05:33:20.837Z,10.92
2018-05-19T05:34:20.834Z,10.97
2018-05-19T05:35:20.837Z,11.02
2018-05-19T05:36:20.833Z,11.18
2018-05-19T05:37:20.830Z,11.35
2018-05-19T05:38:20.828Z,11.30
2018-05-19T05:39:20.827Z,11.32
2018-05-19T05:40:20.825Z,11.52
2018-05-19T05:41:20.821Z,11.59
2018-05-19T05:42:20.822Z,11.70
2018-05-19T05:43:20.820Z,11.72
2018-05-19T05:44:20.819Z,11.80
2018-05-19T05:45:20.817Z,11.69
2018-05-19T05:46:20.816Z,11.70
2018-05-19T05:47:20.815Z,11.60
2018-05-19T05:48:20.814Z,11.47
2018-05-19T05:49:20.813Z,11.62
2018-05-19T05:50:20.811Z,11.68
2018-05-19T05:51:20.812Z,11.59
2018-05-19T05:52:20.812Z,11.75
2018-05-19T05:53:20.807Z,11.77
2018-05-19T05:54:20.811Z,11.86
2018-05-19T05:55:20.807Z,11.84
2018-05-19T05:56:20.806Z,11.86
2018-05-19T05:57:20.805Z,11.84
2018-05-19T05:58:20.805Z,11.78
2018-05-19T05:59:20.804Z,11.59
2018-05-19T06:00:20.803Z,11.62
2018-05-19T06:01:20.801Z,11.75
2018-05-19T06:02:20.801Z,11.83
2018-05-19T06:03:20.801Z,11.94
2018-05-19T06:04:20.804Z,12.00
2018-05-19T06:05:20.800Z,12.12
2018-05-19T06:06:20.888Z,12.13
2018-05-19T06:07:20.798Z,12.15
2018-05-19T06:08:20.803Z,12.15
2018-05-19T06:09:20.797Z,12.31
2018-05-19T06:10:20.796Z,12.32
2018-05-19T06:11:20.798Z,12.29
2018-05-19T06:12:20.878Z,12.43
2018-05-19T06:13:20.796Z,12.36
2018-05-19T06:14:20.796Z,12.45
2018-05-19T06:15:20.795Z,12.31
2018-05-19T06:16:20.795Z,12.36
2018-05-19T06:17:20.795Z,12.42
2018-05-19T06:18:20.795Z,12.40
2018-05-19T06:19:20.795Z,12.58
2018-05-19T06:20:20.795Z,12.76
2018-05-19T06:21:20.795Z,12.76
2018-05-19T06:22:20.795Z,12.73
2018-05-19T06:23:20.796Z,12.79
2018-05-19T06:24:20.796Z,12.79
2018-05-19T06:25:20.795Z,12.85
2018-05-19T06:26:20.795Z,12.78
2018-05-19T06:27:20.797Z,12.82
2018-05-19T06:28:20.797Z,12.93
2018-05-19T06:29:20.797Z,13.08
2018-05-19T06:30:20.797Z,13.00
2018-05-19T06:31:20.801Z,13.04
2018-05-19T06:32:20.799Z,13.11
2018-05-19T06:33:20.799Z,13.28
2018-05-19T06:34:20.801Z,13.35
2018-05-19T06:35:20.801Z,13.37
2018-05-19T06:36:20.807Z,13.27
2018-05-19T06:37:20.802Z,13.15
2018-05-19T06:38:20.804Z,13.18
2018-05-19T06:39:20.805Z,13.13
2018-05-19T06:40:20.808Z,13.22
2018-05-19T06:41:20.807Z,13.30
2018-05-19T06:42:20.808Z,13.38
2018-05-19T06:43:20.810Z,13.65
2018-05-19T06:44:20.811Z,13.79
2018-05-19T06:45:20.812Z,13.81
2018-05-19T06:46:20.820Z,13.83
2018-05-19T06:47:20.815Z,13.86
2018-05-19T06:48:20.863Z,13.75
2018-05-19T06:49:20.818Z,13.39
2018-05-19T06:50:20.819Z,13.44
2018-05-19T06:51:20.822Z,13.28
2018-05-19T06:52:20.824Z,13.31
2018-05-19T06:53:20.824Z,13.23
2018-05-19T06:54:20.826Z,13.22
2018-05-19T06:55:20.828Z,13.16
2018-05-19T06:56:20.830Z,13.08
2018-05-19T06:57:20.831Z,12.98
2018-05-19T06:58:20.832Z,12.97
2018-05-19T06:59:20.835Z,13.01
2018-05-19T07:00:20.837Z,13.22
2018-05-19T07:01:20.838Z,13.39
2018-05-19T07:02:20.840Z,13.47
2018-05-19T07:03:20.842Z,13.50
2018-05-19T07:04:20.843Z,13.67
2018-05-19T07:05:20.849Z,13.60
2018-05-19T07:06:20.848Z,13.52
2018-05-19T07:07:20.849Z,13.62
2018-05-19T07:08:20.851Z,13.70
2018-05-19T07:09:20.852Z,13.78
2018-05-19T07:10:20.854Z,13.89
2018-05-19T07:11:20.856Z,13.97
2018-05-19T07:12:20.857Z,13.97
2018-05-19T07:13:20.859Z,14.07
2018-05-19T07:14:20.864Z,14.05
2018-05-19T07:15:20.864Z,13.87
2018-05-19T07:16:20.865Z,13.92
2018-05-19T07:17:20.868Z,13.97
2018-05-19T07:18:20.869Z,13.96
2018-05-19T07:19:20.873Z,13.87
2018-05-19T07:20:20.875Z,13.79
2018-05-19T07:21:20.877Z,13.87
2018-05-19T07:22:20.882Z,14.11
2018-05-19T07:23:20.882Z,14.35
2018-05-19T07:24:20.884Z,14.51
2018-05-19T07:25:20.887Z,14.32
2018-05-19T07:26:20.890Z,14.53
2018-05-19T07:27:20.940Z,14.72
2018-05-19T07:28:20.896Z,14.89
2018-05-19T07:29:20.905Z,14.88
2018-05-19T07:30:20.901Z,14.84
2018-05-19T07:31:20.905Z,14.60
2018-05-19T07:32:20.908Z,14.40
2018-05-19T07:33:20.910Z,14.36
2018-05-19T07:34:20.915Z,14.36
2018-05-19T07:35:20.917Z,14.28
2018-05-19T07:36:20.922Z,14.14
2018-05-19T07:37:20.925Z,14.25
2018-05-19T07:38:20.928Z,14.15
2018-05-19T07:39:20.933Z,14.20
2018-05-19T07:40:20.937Z,14.28
2018-05-19T07:41:20.939Z,14.77
2018-05-19T07:42:20.943Z,15.18
2018-05-19T07:43:20.949Z,15.73
2018-05-19T07:44:20.955Z,16.51
2018-05-19T07:45:20.967Z,16.31
2018-05-19T07:46:20.965Z,16.42
2018-05-19T07:47:20.972Z,17.41
2018-05-19T07:48:20.979Z,18.26
2018-05-19T07:49:20.985Z,18.41
2018-05-19T07:50:20.996Z,18.43
2018-05-19T07:51:21.006Z,18.33
2018-05-19T07:52:21.009Z,17.90
2018-05-19T07:53:21.018Z,17.89
2018-05-19T07:54:21.026Z,18.29
2018-05-19T07:55:21.037Z,18.15
2018-05-19T07:56:21.046Z,18.63
2018-05-19T07:57:21.055Z,18.84
2018-05-19T07:58:21.088Z,19.07
2018-05-19T07:59:21.075Z,19.49
2018-05-19T08:00:21.087Z,19.91
2018-05-19T08:01:21.097Z,20.00
2018-05-19T08:02:21.107Z,20.09
2018-05-19T08:03:21.119Z,19.45
2018-05-19T08:04:21.204Z,19.47
2018-05-19T08:05:21.143Z,19.24
2018-05-19T08:06:21.153Z,19.55
2018-05-19T08:07:21.165Z,19.70
2018-05-19T08:08:21.179Z,19.99
2018-05-19T08:09:21.190Z,19.82
2018-05-19T08:10:21.202Z,20.28
2018-05-19T08:11:21.216Z,19.96
2018-05-19T08:12:21.319Z,19.63
2018-05-19T08:13:21.241Z,19.18
2018-05-19T08:14:21.255Z,18.84
2018-05-19T08:15:21.268Z,19.08
2018-05-19T08:16:21.281Z,19.19
2018-05-19T08:17:21.293Z,18.40
2018-05-19T08:18:21.308Z,18.07
2018-05-19T08:19:21.320Z,17.87
2018-05-19T08:20:21.364Z,18.45
2018-05-19T08:21:21.345Z,18.44
2018-05-19T08:22:21.359Z,18.45
2018-05-19T08:23:21.375Z,18.89
2018-05-19T08:24:21.386Z,19.31
2018-05-19T08:25:21.399Z,18.89
2018-05-19T08:26:21.412Z,18.50
2018-05-19T08:27:21.424Z,18.52
2018-05-19T08:28:21.534Z,18.53
2018-05-19T08:29:21.450Z,18.43
2018-05-19T08:30:21.481Z,18.20
2018-05-19T08:31:21.476Z,18.44
2018-05-19T08:32:21.488Z,18.35
2018-05-19T08:33:21.504Z,18.03
2018-05-19T08:34:21.513Z,18.03
2018-05-19T08:35:21.526Z,17.30
2018-05-19T08:36:21.539Z,16.76
2018-05-19T08:37:21.559Z,17.60
2018-05-19T08:38:21.563Z,17.85
2018-05-19T08:39:21.575Z,17.78
2018-05-19T08:40:21.587Z,16.94
2018-05-19T08:41:21.598Z,16.86
2018-05-19T08:42:21.610Z,16.75
2018-05-19T08:43:21.622Z,17.09
2018-05-19T08:44:21.634Z,17.71
2018-05-19T08:45:21.645Z,18.37
2018-05-19T08:46:21.656Z,18.20
2018-05-19T08:47:21.667Z,18.26
2018-05-19T08:48:21.679Z,18.33
2018-05-19T08:49:21.688Z,18.88
2018-05-19T08:50:21.701Z,18.58
2018-05-19T08:51:21.711Z,17.83
2018-05-19T08:52:21.724Z,17.46
2018-05-19T08:53:21.736Z,17.30
2018-05-19T08:54:21.746Z,17.86
2018-05-19T08:55:21.758Z,18.33
2018-05-19T08:56:21.769Z,18.03
2018-05-19T08:57:21.780Z,17.44
2018-05-19T08:58:21.790Z,17.04
2018-05-19T08:59:21.802Z,16.71
2018-05-19T09:00:21.816Z,16.75
2018-05-19T09:01:21.825Z,16.61
2018-05-19T09:02:21.844Z,16.90
2018-05-19T09:03:21.845Z,17.01
2018-05-19T09:04:21.854Z,17.57
2018-05-19T09:05:21.865Z,17.63
2018-05-19T09:06:21.875Z,17.98
2018-05-19T09:07:21.885Z,18.53
2018-05-19T09:08:21.896Z,18.92
2018-05-19T09:09:21.905Z,19.27
2018-05-19T09:10:21.919Z,18.74
2018-05-19T09:11:21.925Z,18.66
2018-05-19T09:12:21.943Z,18.29
2018-05-19T09:13:21.945Z,17.80
2018-05-19T09:14:21.956Z,17.38
2018-05-19T09:15:21.967Z,17.23
2018-05-19T09:16:21.977Z,16.94
2018-05-19T09:17:21.987Z,16.99
2018-05-19T09:18:21.998Z,17.04
2018-05-19T09:19:22.009Z,16.50
2018-05-19T09:20:22.022Z,16.42
2018-05-19T09:21:22.030Z,16.43
2018-05-19T09:22:22.039Z,16.24
2018-05-19T09:23:22.048Z,16.26
2018-05-19T09:24:22.058Z,17.29
2018-05-19T09:25:22.065Z,18.43
2018-05-19T09:26:22.075Z,19.51
2018-05-19T09:27:22.085Z,20.25
2018-05-19T09:28:22.105Z,20.40
2018-05-19T09:29:22.103Z,20.47
2018-05-19T09:30:22.113Z,20.99
2018-05-19T09:31:22.123Z,20.99
2018-05-19T09:32:22.133Z,20.02
2018-05-19T09:33:22.142Z,18.44
2018-05-19T09:34:22.154Z,17.97
2018-05-19T09:35:22.164Z,17.45
2018-05-19T09:36:22.175Z,18.07
2018-05-19T09:37:22.185Z,19.40
2018-05-19T09:38:22.194Z,20.16
2018-05-19T09:39:22.205Z,20.90
2018-05-19T09:40:22.217Z,18.93
2018-05-19T09:41:22.227Z,18.20
2018-05-19T09:42:22.239Z,17.70
2018-05-19T09:43:22.248Z,16.64
2018-05-19T09:44:22.259Z,16.36
2018-05-19T09:45:22.269Z,16.10
2018-05-19T09:46:22.280Z,15.92
2018-05-19T09:47:22.383Z,16.35
2018-05-19T09:48:22.300Z,17.45
2018-05-19T09:49:22.308Z,17.30
2018-05-19T09:50:22.319Z,17.45
2018-05-19T09:51:22.330Z,17.85
2018-05-19T09:52:22.339Z,17.87
2018-05-19T09:53:22.347Z,17.98
2018-05-19T09:54:22.356Z,18.22
2018-05-19T09:55:22.366Z,18.56
2018-05-19T09:56:22.376Z,19.19
2018-05-19T09:57:22.384Z,19.59
2018-05-19T09:58:22.395Z,19.21
2018-05-19T09:59:22.484Z,18.53
2018-05-19T10:00:22.413Z,18.34
2018-05-19T10:01:22.422Z,17.63
2018-05-19T10:02:22.432Z,17.20
2018-05-19T10:03:22.440Z,17.86
2018-05-19T10:04:22.450Z,18.22
2018-05-19T10:05:22.458Z,18.77
2018-05-19T10:06:22.468Z,18.99
2018-05-19T10:07:22.476Z,18.20
2018-05-19T10:08:22.486Z,17.72
2018-05-19T10:09:22.499Z,17.98
2018-05-19T10:10:22.504Z,18.73
2018-05-19T10:11:22.513Z,19.49
2018-05-19T10:12:22.526Z,20.06
2018-05-19T10:13:22.531Z,20.78
2018-05-19T10:14:22.540Z,21.37
2018-05-19T10:15:22.552Z,21.77
2018-05-19T10:16:22.561Z,22.15
2018-05-19T10:17:22.627Z,22.66
2018-05-19T10:18:22.581Z,22.87
2018-05-19T10:19:22.591Z,23.31
2018-05-19T10:20:22.601Z,22.53
2018-05-19T10:21:22.611Z,20.78
2018-05-19T10:22:22.622Z,19.92
2018-05-19T10:23:22.633Z,19.47
2018-05-19T10:24:22.644Z,19.12
2018-05-19T10:25:22.656Z,19.51
2018-05-19T10:26:22.665Z,18.70
2018-05-19T10:27:22.676Z,18.33
2018-05-19T10:28:22.766Z,17.80
2018-05-19T10:29:22.697Z,17.51
2018-05-19T10:30:22.707Z,17.52
2018-05-19T10:31:22.718Z,17.38
2018-05-19T10:32:22.727Z,17.22
2018-05-19T10:33:22.737Z,17.30
2018-05-19T10:34:22.747Z,17.29
2018-05-19T10:35:22.792Z,17.26
2018-05-19T10:36:22.767Z,17.36
2018-05-19T10:37:22.781Z,17.44
2018-05-19T10:38:22.784Z,17.48
2018-05-19T10:39:22.794Z,17.76
2018-05-19T10:40:22.803Z,17.79
2018-05-19T10:41:22.812Z,18.81
2018-05-19T10:42:22.819Z,19.54
2018-05-19T10:43:22.832Z,20.16
2018-05-19T10:44:22.837Z,20.77
2018-05-19T10:45:22.844Z,20.99
2018-05-19T10:46:22.853Z,20.24
2018-05-19T10:47:22.862Z,20.18
2018-05-19T10:48:22.872Z,20.62
2018-05-19T10:49:22.880Z,20.84
2018-05-19T10:50:22.889Z,21.07
2018-05-19T10:51:22.898Z,20.95
2018-05-19T10:52:22.909Z,21.42
2018-05-19T10:53:22.916Z,21.67
2018-05-19T10:54:22.925Z,21.73
2018-05-19T10:55:22.934Z,20.87
2018-05-19T10:56:22.945Z,20.77
2018-05-19T10:57:22.954Z,19.79
2018-05-19T10:58:22.964Z,19.56
2018-05-19T10:59:22.973Z,19.52
2018-05-19T11:00:22.984Z,19.84
2018-05-19T11:01:22.993Z,21.06
2018-05-19T11:02:23.003Z,21.24
2018-05-19T11:03:23.018Z,21.20
2018-05-19T11:04:23.023Z,21.21
2018-05-19T11:05:23.033Z,21.99
2018-05-19T11:06:23.042Z,21.67
2018-05-19T11:07:23.053Z,21.88
2018-05-19T11:08:23.063Z,22.08
2018-05-19T11:09:23.072Z,22.18
2018-05-19T11:10:23.081Z,22.02
2018-05-19T11:11:23.090Z,21.80
2018-05-19T11:12:23.101Z,21.76
2018-05-19T11:13:23.111Z,21.37
2018-05-19T11:14:23.121Z,20.99
2018-05-19T11:15:23.133Z,20.90
2018-05-19T11:16:23.142Z,20.70
2018-05-19T11:17:23.149Z,20.48
2018-05-19T11:18:23.161Z,20.47
2018-05-19T11:19:23.170Z,20.50
2018-05-19T11:20:23.181Z,19.64
2018-05-19T11:21:23.188Z,19.14
2018-05-19T11:22:23.197Z,18.74
2018-05-19T11:23:23.208Z,18.50
2018-05-19T11:24:23.219Z,19.00
2018-05-19T11:25:23.285Z,18.96
2018-05-19T11:26:23.236Z,18.37
2018-05-19T11:27:23.243Z,18.65
2018-05-19T11:28:23.254Z,18.52
2018-05-19T11:29:23.263Z,18.45
2018-05-19T11:30:23.272Z,18.50
2018-05-19T11:31:23.281Z,18.22
2018-05-19T11:32:23.289Z,18.49
2018-05-19T11:33:23.297Z,18.66
2018-05-19T11:34:23.306Z,18.66
2018-05-19T11:35:23.315Z,18.70
2018-05-19T11:36:23.323Z,18.90
2018-05-19T11:37:23.330Z,19.08
2018-05-19T11:38:23.341Z,19.27
2018-05-19T11:39:23.347Z,19.04
2018-05-19T11:40:23.355Z,18.71
2018-05-19T11:41:23.362Z,18.84
2018-05-19T11:42:23.370Z,18.71
2018-05-19T11:43:23.377Z,18.73
2018-05-19T11:44:23.386Z,18.84
2018-05-19T11:45:23.393Z,18.98
2018-05-19T11:46:23.401Z,19.12
2018-05-19T11:47:23.410Z,18.92
2018-05-19T11:48:23.416Z,18.92
2018-05-19T11:49:23.423Z,18.92
2018-05-19T11:50:23.428Z,18.89
2018-05-19T11:51:23.438Z,18.86
2018-05-19T11:52:23.445Z,18.90
2018-05-19T11:53:23.451Z,18.98
2018-05-19T11:54:23.459Z,19.14
2018-05-19T11:55:23.468Z,19.26
2018-05-19T11:56:23.475Z,19.24
2018-05-19T11:57:23.482Z,19.29
2018-05-19T11:58:23.488Z,19.18
2018-05-19T11:59:23.496Z,18.96
2018-05-19T12:00:23.503Z,17.98
2018-05-19T12:01:23.509Z,17.82
2018-05-19T12:02:23.516Z,18.05
2018-05-19T12:03:23.524Z,18.05
2018-05-19T12:04:23.531Z,18.03
2018-05-19T12:05:23.537Z,18.18
2018-05-19T12:06:23.544Z,18.38
2018-05-19T12:07:23.551Z,18.52
2018-05-19T12:08:23.557Z,18.59
2018-05-19T12:09:23.563Z,18.56
2018-05-19T12:10:23.571Z,18.47
2018-05-19T12:11:23.577Z,18.37
2018-05-19T12:12:23.666Z,18.52
2018-05-19T12:13:23.591Z,18.65
2018-05-19T12:14:23.596Z,18.73
2018-05-19T12:15:23.604Z,18.53
2018-05-19T12:16:23.610Z,18.05
2018-05-19T12:17:23.621Z,17.89
2018-05-19T12:18:23.623Z,17.94
2018-05-19T12:19:23.628Z,17.86
2018-05-19T12:20:23.635Z,18.03
2018-05-19T12:21:23.641Z,18.22
2018-05-19T12:22:23.647Z,18.37
2018-05-19T12:23:23.653Z,18.63
2018-05-19T12:24:23.660Z,18.59
2018-05-19T12:25:23.665Z,18.71
2018-05-19T12:26:23.675Z,18.68
2018-05-19T12:27:23.678Z,18.83
2018-05-19T12:28:23.684Z,18.70
2018-05-19T12:29:23.689Z,18.75
2018-05-19T12:30:23.696Z,18.74
2018-05-19T12:31:23.701Z,18.70
2018-05-19T12:32:23.708Z,18.84
2018-05-19T12:33:23.714Z,18.99
2018-05-19T12:34:23.720Z,19.08
2018-05-19T12:35:23.725Z,18.89
2018-05-19T12:36:23.732Z,18.84
2018-05-19T12:37:23.737Z,18.95
2018-05-19T12:38:23.744Z,18.98
2018-05-19T12:39:23.755Z,19.15
2018-05-19T12:40:23.756Z,19.21
2018-05-19T12:41:23.818Z,19.31
2018-05-19T12:42:23.771Z,19.24
2018-05-19T12:43:23.773Z,19.24
2018-05-19T12:44:23.781Z,19.34
2018-05-19T12:45:23.784Z,19.14
2018-05-19T12:46:23.790Z,19.19
2018-05-19T12:47:23.799Z,19.24
2018-05-19T12:48:23.802Z,19.41
2018-05-19T12:49:23.809Z,19.52
2018-05-19T12:50:23.814Z,19.74
2018-05-19T12:51:23.821Z,19.73
2018-05-19T12:52:23.826Z,19.77
2018-05-19T12:53:23.831Z,19.70
2018-05-19T12:54:23.839Z,19.47
2018-05-19T12:55:23.843Z,19.55
2018-05-19T12:56:23.850Z,18.93
2018-05-19T12:57:23.853Z,18.99
2018-05-19T12:58:23.861Z,18.98
2018-05-19T12:59:23.866Z,19.22
2018-05-19T13:00:23.873Z,19.51
2018-05-19T13:01:23.876Z,19.48
2018-05-19T13:02:23.883Z,19.41